^^
Station Historical Data
Daily Summary for December 08, 2017 Units:  Both    English   Metric
« Previous Day
Next Day »
Daily Weekly Monthly Yearly Custom
  High: Low: Average:
Temperature: 101.3 °F /  38.5 °C 71.8 °F /  22.1 °C 84.7 °F /  29.3 °C
Dew Point: 58.1 °F /  14.5 °C 41.4 °F /  5.2 °C 48 °F /  8.9 °C
Humidity: 41% 13% 30%
Wind Speed: 25.1mph /  40.4km/h - 3mph /  4.8km/h
Wind Gust: 31.0mph /  49.9km/h - -
Wind- - South
Pressure: 29.81 in /  1009.4 hPa 29.65 in /  1003.9 hPa -
Precipitation: 0.00 in /  0 mm    
Historical Graphs
 
 
Tabular Data for December 08, 2017
Time Temperature Dew Point Pressure Wind Wind Speed Wind Gust Humidity Rainfall Rate (Hourly) solar Conditions
00:49 81.3 °F /  27.4 °C 51.8 °F /  11 °C 29.75in /  1007.3hPa Calm     36% 0.00in /  0mm 0.0 W/m2
00:54 81.0 °F /  27.2 °C 51.4 °F /  10.8 °C 29.75in /  1007.3hPa Calm     36% 0.00in /  0mm 0.0 W/m2
01:04 80.2 °F /  26.8 °C 51.6 °F /  10.9 °C 29.75in /  1007.3hPa Calm     37% 0.00in /  0mm 0.0 W/m2
01:09 79.9 °F /  26.6 °C 51.3 °F /  10.7 °C 29.75in /  1007.3hPa Calm     37% 0.00in /  0mm 0.0 W/m2
01:15 79.3 °F /  26.3 °C 50.7 °F /  10.4 °C 29.75in /  1007.3hPa Calm     37% 0.00in /  0mm 0.0 W/m2
01:25 78.6 °F /  25.9 °C 50.9 °F /  10.5 °C 29.75in /  1007.3hPa Calm     38% 0.00in /  0mm 0.0 W/m2
01:35 77.9 °F /  25.5 °C 50.9 °F /  10.5 °C 29.75in /  1007.3hPa Calm     39% 0.00in /  0mm 0.0 W/m2
01:40 77.5 °F /  25.3 °C 51.3 °F /  10.7 °C 29.75in /  1007.3hPa Calm     40% 0.00in /  0mm 0.0 W/m2
01:46 77.4 °F /  25.2 °C 51.1 °F /  10.6 °C 29.75in /  1007.3hPa Calm     40% 0.00in /  0mm 0.0 W/m2
01:51 77.4 °F /  25.2 °C 50.5 °F /  10.3 °C 29.75in /  1007.3hPa Calm     39% 0.00in /  0mm 0.0 W/m2
02:01 77.2 °F /  25.1 °C 49.6 °F /  9.8 °C 29.75in /  1007.3hPa Calm     38% 0.00in /  0mm 0.0 W/m2
02:07 77.2 °F /  25.1 °C 49.6 °F /  9.8 °C 29.75in /  1007.3hPa Calm     38% 0.00in /  0mm 0.0 W/m2
02:12 77.4 °F /  25.2 °C 49.1 °F /  9.5 °C 29.75in /  1007.3hPa Calm     37% 0.00in /  0mm 0.0 W/m2
02:23 77.2 °F /  25.1 °C 49.6 °F /  9.8 °C 29.75in /  1007.3hPa Calm     38% 0.00in /  0mm 0.0 W/m2
02:38 76.5 °F /  24.7 °C 48.2 °F /  9 °C 29.75in /  1007.3hPa Calm     37% 0.00in /  0mm 0.0 W/m2
02:43 76.3 °F /  24.6 °C 48.7 °F /  9.3 °C 29.75in /  1007.3hPa Calm     38% 0.00in /  0mm 0.0 W/m2
02:48 75.7 °F /  24.3 °C 48.4 °F /  9.1 °C 29.74in /  1007hPa Calm     38% 0.00in /  0mm 0.0 W/m2
02:53 75.0 °F /  23.9 °C 47.7 °F /  8.7 °C 29.74in /  1007hPa Calm     38% 0.00in /  0mm 0.0 W/m2
02:58 74.7 °F /  23.7 °C 47.3 °F /  8.5 °C 29.74in /  1007hPa Calm     38% 0.00in /  0mm 0.0 W/m2
03:03 74.8 °F /  23.8 °C 48.2 °F /  9 °C 29.74in /  1007hPa Calm     39% 0.00in /  0mm 0.0 W/m2
03:09 75.0 °F /  23.9 °C 47.7 °F /  8.7 °C 29.74in /  1007hPa Calm     38% 0.00in /  0mm 0.0 W/m2
03:20 75.6 °F /  24.2 °C 48.9 °F /  9.4 °C 29.74in /  1007hPa Calm     39% 0.00in /  0mm 0.0 W/m2
03:25 75.9 °F /  24.4 °C 49.1 °F /  9.5 °C 29.74in /  1007hPa Calm     39% 0.00in /  0mm 0.0 W/m2
03:35 75.9 °F /  24.4 °C 48.6 °F /  9.2 °C 29.74in /  1007hPa Calm     38% 0.00in /  0mm 0.0 W/m2
03:40 75.9 °F /  24.4 °C 48.6 °F /  9.2 °C 29.74in /  1007hPa Calm     38% 0.00in /  0mm 0.0 W/m2
03:57 75.6 °F /  24.2 °C 48.9 °F /  9.4 °C 29.74in /  1007hPa Calm     39% 0.00in /  0mm 0.0 W/m2
04:02 75.4 °F /  24.1 °C 48.7 °F /  9.3 °C 29.73in /  1006.7hPa Calm     39% 0.00in /  0mm 0.0 W/m2
04:08 75.0 °F /  23.9 °C 48.4 °F /  9.1 °C 29.73in /  1006.7hPa Calm     39% 0.00in /  0mm 0.0 W/m2
04:17 74.8 °F /  23.8 °C 48.9 °F /  9.4 °C 29.73in /  1006.7hPa Calm     40% 0.00in /  0mm 0.0 W/m2
04:28 74.3 °F /  23.5 °C 49.1 °F /  9.5 °C 29.74in /  1007hPa Calm     41% 0.00in /  0mm 0.0 W/m2
04:33 74.1 °F /  23.4 °C 48.9 °F /  9.4 °C 29.73in /  1006.7hPa Calm     41% 0.00in /  0mm 0.0 W/m2
04:42 73.8 °F /  23.2 °C 47.3 °F /  8.5 °C 29.73in /  1006.7hPa Calm     39% 0.00in /  0mm 0.0 W/m2
04:48 73.6 °F /  23.1 °C 47.8 °F /  8.8 °C 29.74in /  1007hPa Calm     40% 0.00in /  0mm 0.0 W/m2
04:53 73.9 °F /  23.3 °C 46.0 °F /  7.8 °C 29.74in /  1007hPa Calm     37% 0.00in /  0mm 0.0 W/m2
04:58 74.3 °F /  23.5 °C 46.4 °F /  8 °C 29.74in /  1007hPa Calm     37% 0.00in /  0mm 0.0 W/m2
05:03 73.9 °F /  23.3 °C 46.0 °F /  7.8 °C 29.74in /  1007hPa Calm     37% 0.00in /  0mm 0.0 W/m2
05:08 73.6 °F /  23.1 °C 47.1 °F /  8.4 °C 29.74in /  1007hPa Calm     39% 0.00in /  0mm 0.0 W/m2
05:19 72.7 °F /  22.6 °C 46.2 °F /  7.9 °C 29.75in /  1007.3hPa Calm     39% 0.00in /  0mm 0.0 W/m2
05:24 72.5 °F /  22.5 °C 46.2 °F /  7.9 °C 29.75in /  1007.3hPa Calm     39% 0.00in /  0mm 0.0 W/m2
05:29 72.7 °F /  22.6 °C 45.7 °F /  7.6 °C 29.75in /  1007.3hPa Calm     38% 0.00in /  0mm 0.0 W/m2
05:39 72.3 °F /  22.4 °C 44.6 °F /  7 °C 29.75in /  1007.3hPa Calm     37% 0.00in /  0mm 0.0 W/m2
05:55 71.8 °F /  22.1 °C 44.8 °F /  7.1 °C 29.76in /  1007.7hPa Calm     38% 0.00in /  0mm 9.0 W/m2
06:00 72.1 °F /  22.3 °C 45.1 °F /  7.3 °C 29.76in /  1007.7hPa Calm     38% 0.00in /  0mm 12.0 W/m2
06:11 73.0 °F /  22.8 °C 45.1 °F /  7.3 °C 29.76in /  1007.7hPa Calm     37% 0.00in /  0mm 21.0 W/m2
06:21 75.6 °F /  24.2 °C 45.1 °F /  7.3 °C 29.77in /  1008hPa Calm     34% 0.00in /  0mm 44.0 W/m2
06:31 76.5 °F /  24.7 °C 45.1 °F /  7.3 °C 29.77in /  1008hPa Calm     33% 0.00in /  0mm 67.0 W/m2
06:36 76.6 °F /  24.8 °C 46.2 °F /  7.9 °C 29.77in /  1008hPa Calm     34% 0.00in /  0mm 83.0 W/m2
06:46 77.2 °F /  25.1 °C 48.2 °F /  9 °C 29.77in /  1008hPa Calm     36% 0.00in /  0mm 118.0 W/m2
06:51 77.5 °F /  25.3 °C 48.6 °F /  9.2 °C 29.78in /  1008.4hPa Calm     36% 0.00in /  0mm 137.0 W/m2
06:56 78.1 °F /  25.6 °C 48.2 °F /  9 °C 29.78in /  1008.4hPa Calm     35% 0.00in /  0mm 165.0 W/m2
07:01 78.6 °F /  25.9 °C 47.8 °F /  8.8 °C 29.78in /  1008.4hPa Calm     34% 0.00in /  0mm 181.0 W/m2
07:07 79.2 °F /  26.2 °C 48.4 °F /  9.1 °C 29.78in /  1008.4hPa Calm     34% 0.00in /  0mm 200.0 W/m2
07:31 81.1 °F /  27.3 °C 49.3 °F /  9.6 °C 29.78in /  1008.4hPa Calm   6.0mph /  9.7km/h 33% 0.00in /  0mm 267.0 W/m2
07:54 84.2 °F /  29 °C 49.5 °F /  9.7 °C 29.79in /  1008.7hPa Calm     30% 0.00in /  0mm 350.0 W/m2
08:13 85.8 °F /  29.9 °C 48.9 °F /  9.4 °C 29.79in /  1008.7hPa NW 2.0mph /  3.2km/h 6.0mph /  9.7km/h 28% 0.00in /  0mm 399.0 W/m2
08:44 88.2 °F /  31.2 °C 50.0 °F /  10 °C 29.79in /  1008.7hPa Calm   7.0mph /  11.3km/h 27% 0.00in /  0mm 499.0 W/m2
09:14 89.2 °F /  31.8 °C 50.9 °F /  10.5 °C 29.79in /  1008.7hPa Calm   9.0mph /  14.5km/h 27% 0.00in /  0mm 598.0 W/m2
09:44 89.6 °F /  32 °C 51.3 °F /  10.7 °C 29.79in /  1008.7hPa North 11.0mph /  17.7km/h 14.0mph /  22.5km/h 27% 0.00in /  0mm 677.0 W/m2
10:08 91.2 °F /  32.9 °C 50.5 °F /  10.3 °C 29.79in /  1008.7hPa NNW 6.9mph /  11.1km/h 14.0mph /  22.5km/h 25% 0.00in /  0mm 747.0 W/m2
10:28 91.8 °F /  33.2 °C 49.8 °F /  9.9 °C 29.79in /  1008.7hPa NNW 8.9mph /  14.3km/h 17.0mph /  27.4km/h 24% 0.00in /  0mm 796.0 W/m2
11:14 94.3 °F /  34.6 °C 47.1 °F /  8.4 °C 29.79in /  1008.7hPa North 8.1mph /  13km/h 16.0mph /  25.7km/h 20% 0.00in /  0mm 882.0 W/m2
11:45 95.2 °F /  35.1 °C 46.4 °F /  8 °C 29.78in /  1008.4hPa North 4.9mph /  7.9km/h 17.0mph /  27.4km/h 19% 0.00in /  0mm 925.0 W/m2
12:31 95.4 °F /  35.2 °C 45.1 °F /  7.3 °C 29.77in /  1008hPa Calm     18% 0.00in /  0mm 956.0 W/m2
13:01 97.2 °F /  36.2 °C 45.1 °F /  7.3 °C 29.76in /  1007.7hPa NW 6.9mph /  11.1km/h 8.0mph /  12.9km/h 17% 0.00in /  0mm 977.0 W/m2
13:17 97.9 °F /  36.6 °C 44.1 °F /  6.7 °C 29.76in /  1007.7hPa Calm   8.0mph /  12.9km/h 16% 0.00in /  0mm 988.0 W/m2
13:31 98.2 °F /  36.8 °C 44.4 °F /  6.9 °C 29.75in /  1007.3hPa Calm     16% 0.00in /  0mm 983.0 W/m2
13:46 97.2 °F /  36.2 °C 45.1 °F /  7.3 °C 29.74in /  1007hPa SW 4.0mph /  6.4km/h 4.0mph /  6.4km/h 17% 0.00in /  0mm 972.0 W/m2
13:58 99.9 °F /  37.7 °C 43.9 °F /  6.6 °C 29.74in /  1007hPa WSW 6.0mph /  9.7km/h 8.0mph /  12.9km/h 15% 0.00in /  0mm 998.0 W/m2
14:13 99.1 °F /  37.3 °C 43.3 °F /  6.3 °C 29.73in /  1006.7hPa West 4.9mph /  7.9km/h 11.0mph /  17.7km/h 15% 0.00in /  0mm 937.0 W/m2
14:42 99.1 °F /  37.3 °C 43.3 °F /  6.3 °C 29.72in /  1006.3hPa Calm     15% 0.00in /  0mm 907.0 W/m2
14:52 99.1 °F /  37.3 °C 43.3 °F /  6.3 °C 29.72in /  1006.3hPa Calm     15% 0.00in /  0mm 854.0 W/m2
15:17 99.7 °F /  37.6 °C 43.9 °F /  6.6 °C 29.70in /  1005.6hPa Calm   1.0mph /  1.6km/h 15% 0.00in /  0mm 116.0 W/m2
15:25 99.0 °F /  37.2 °C 43.2 °F /  6.2 °C 29.70in /  1005.6hPa West 2.9mph /  4.7km/h 4.0mph /  6.4km/h 15% 0.00in /  0mm 831.0 W/m2
15:31 99.7 °F /  37.6 °C 43.9 °F /  6.6 °C 29.69in /  1005.3hPa WNW 13.0mph /  20.9km/h 15.0mph /  24.1km/h 15% 0.00in /  0mm 823.0 W/m2
15:38 100.6 °F /  38.1 °C 42.8 °F /  6 °C 29.69in /  1005.3hPa Calm   8.0mph /  12.9km/h 14% 0.00in /  0mm 534.0 W/m2
15:44 100.4 °F /  38 °C 42.6 °F /  5.9 °C 29.68in /  1005hPa Calm   1.0mph /  1.6km/h 14% 0.00in /  0mm 803.0 W/m2
15:51 100.6 °F /  38.1 °C 42.8 °F /  6 °C 29.68in /  1005hPa WNW 0.9mph /  1.4km/h 3.0mph /  4.8km/h 14% 0.00in /  0mm 700.0 W/m2
16:03 99.5 °F /  37.5 °C 41.9 °F /  5.5 °C 29.68in /  1005hPa WNW 0.9mph /  1.4km/h 4.0mph /  6.4km/h 14% 0.00in /  0mm 132.0 W/m2
16:26 101.3 °F /  38.5 °C 41.4 °F /  5.2 °C 29.67in /  1004.6hPa WNW 4.0mph /  6.4km/h 10.0mph /  16.1km/h 13% 0.00in /  0mm 633.0 W/m2
16:39 100.6 °F /  38.1 °C 42.8 °F /  6 °C 29.66in /  1004.3hPa West 8.1mph /  13km/h 8.1mph /  13km/h 14% 0.00in /  0mm 608.0 W/m2
16:49 100.2 °F /  37.9 °C 42.4 °F /  5.8 °C 29.66in /  1004.3hPa SW 8.1mph /  13km/h 9.0mph /  14.5km/h 14% 0.00in /  0mm 615.0 W/m2
17:00 100.8 °F /  38.2 °C 42.8 °F /  6 °C 29.65in /  1003.9hPa SW 10.1mph /  16.3km/h 13.0mph /  20.9km/h 14% 0.00in /  0mm 603.0 W/m2
17:12 100.0 °F /  37.8 °C 42.3 °F /  5.7 °C 29.65in /  1003.9hPa Calm     14% 0.00in /  0mm 557.0 W/m2
17:27 100.2 °F /  37.9 °C 44.2 °F /  6.8 °C 29.66in /  1004.3hPa ENE 8.9mph /  14.3km/h 23.0mph /  37km/h 15% 0.00in /  0mm 350.0 W/m2
17:40 95.7 °F /  35.4 °C 48.2 °F /  9 °C 29.68in /  1005hPa SE 25.1mph /  40.4km/h 31.0mph /  49.9km/h 20% 0.00in /  0mm 93.0 W/m2
18:11 88.2 °F /  31.2 °C 53.8 °F /  12.1 °C 29.70in /  1005.6hPa East 10.1mph /  16.3km/h 17.0mph /  27.4km/h 31% 0.00in /  0mm 178.0 W/m2
18:25 88.5 °F /  31.4 °C 58.1 °F /  14.5 °C 29.70in /  1005.6hPa ESE 16.1mph /  25.9km/h 18.0mph /  29km/h 36% 0.00in /  0mm 98.0 W/m2
18:35 88.7 °F /  31.5 °C 55.9 °F /  13.3 °C 29.69in /  1005.3hPa East 10.1mph /  16.3km/h 15.0mph /  24.1km/h 33% 0.00in /  0mm 74.0 W/m2
18:46 90.7 °F /  32.6 °C 48.9 °F /  9.4 °C 29.69in /  1005.3hPa East 8.1mph /  13km/h 12.0mph /  19.3km/h 24% 0.00in /  0mm 70.0 W/m2
19:10 91.9 °F /  33.3 °C 45.1 °F /  7.3 °C 29.70in /  1005.6hPa ESE 4.9mph /  7.9km/h 9.0mph /  14.5km/h 20% 0.00in /  0mm 65.0 W/m2
19:22 92.7 °F /  33.7 °C 43.0 °F /  6.1 °C 29.70in /  1005.6hPa SSE 6.9mph /  11.1km/h 15.0mph /  24.1km/h 18% 0.00in /  0mm 49.0 W/m2
19:38 92.7 °F /  33.7 °C 44.4 °F /  6.9 °C 29.71in /  1006hPa SE 6.0mph /  9.7km/h 8.0mph /  12.9km/h 19% 0.00in /  0mm 23.0 W/m2
19:53 91.8 °F /  33.2 °C 45.0 °F /  7.2 °C 29.72in /  1006.3hPa SE 6.0mph /  9.7km/h 6.0mph /  9.7km/h 20% 0.00in /  0mm 0.0 W/m2
21:12 88.7 °F /  31.5 °C 51.4 °F /  10.8 °C 29.75in /  1007.3hPa SSE 2.9mph /  4.7km/h 5.0mph /  8km/h 28% 0.00in /  0mm 0.0 W/m2
21:20 88.9 °F /  31.6 °C 50.5 °F /  10.3 °C 29.77in /  1008hPa SSE 6.9mph /  11.1km/h 7.0mph /  11.3km/h 27% 0.00in /  0mm 0.0 W/m2
21:34 88.7 °F /  31.5 °C 53.2 °F /  11.8 °C 29.79in /  1008.7hPa SSE 2.9mph /  4.7km/h 6.0mph /  9.7km/h 30% 0.00in /  0mm 0.0 W/m2
21:44 88.0 °F /  31.1 °C 54.5 °F /  12.5 °C 29.80in /  1009hPa SSE 6.0mph /  9.7km/h 8.0mph /  12.9km/h 32% 0.00in /  0mm 0.0 W/m2
21:49 87.6 °F /  30.9 °C 55.0 °F /  12.8 °C 29.80in /  1009hPa SE 8.1mph /  13km/h 10.0mph /  16.1km/h 33% 0.00in /  0mm 0.0 W/m2
22:04 87.4 °F /  30.8 °C 52.2 °F /  11.2 °C 29.81in /  1009.4hPa SE 8.1mph /  13km/h 11.0mph /  17.7km/h 30% 0.00in /  0mm 0.0 W/m2
22:14 87.6 °F /  30.9 °C 51.4 °F /  10.8 °C 29.80in /  1009hPa SE 4.9mph /  7.9km/h 8.0mph /  12.9km/h 29% 0.00in /  0mm 0.0 W/m2
22:24 87.3 °F /  30.7 °C 51.1 °F /  10.6 °C 29.80in /  1009hPa SE 4.0mph /  6.4km/h 5.0mph /  8km/h 29% 0.00in /  0mm 0.0 W/m2
22:29 87.1 °F /  30.6 °C 50.9 °F /  10.5 °C 29.80in /  1009hPa SE 4.9mph /  7.9km/h 6.0mph /  9.7km/h 29% 0.00in /  0mm 0.0 W/m2
22:40 86.5 °F /  30.3 °C 50.5 °F /  10.3 °C 29.80in /  1009hPa SSE 6.9mph /  11.1km/h 8.0mph /  12.9km/h 29% 0.00in /  0mm 0.0 W/m2
22:45 86.2 °F /  30.1 °C 49.3 °F /  9.6 °C 29.80in /  1009hPa SSE 8.1mph /  13km/h 10.0mph /  16.1km/h 28% 0.00in /  0mm 0.0 W/m2
22:54 85.5 °F /  29.7 °C 49.6 °F /  9.8 °C 29.80in /  1009hPa South 10.1mph /  16.3km/h 14.0mph /  22.5km/h 29% 0.00in /  0mm 0.0 W/m2
22:59 85.3 °F /  29.6 °C 50.4 °F /  10.2 °C 29.80in /  1009hPa South 8.1mph /  13km/h 11.0mph /  17.7km/h 30% 0.00in /  0mm 0.0 W/m2
23:04 84.9 °F /  29.4 °C 50.9 °F /  10.5 °C 29.80in /  1009hPa South 10.1mph /  16.3km/h 12.0mph /  19.3km/h 31% 0.00in /  0mm 0.0 W/m2
23:09 84.7 °F /  29.3 °C 50.7 °F /  10.4 °C 29.80in /  1009hPa South 6.0mph /  9.7km/h 10.0mph /  16.1km/h 31% 0.00in /  0mm 0.0 W/m2
23:14 84.6 °F /  29.2 °C 50.5 °F /  10.3 °C 29.80in /  1009hPa South 6.0mph /  9.7km/h 8.0mph /  12.9km/h 31% 0.00in /  0mm 0.0 W/m2
23:20 84.4 °F /  29.1 °C 49.6 °F /  9.8 °C 29.80in /  1009hPa South 4.9mph /  7.9km/h 8.0mph /  12.9km/h 30% 0.00in /  0mm 0.0 W/m2
23:30 84.0 °F /  28.9 °C 50.2 °F /  10.1 °C 29.80in /  1009hPa South 4.9mph /  7.9km/h 7.0mph /  11.3km/h 31% 0.00in /  0mm 0.0 W/m2
23:35 83.7 °F /  28.7 °C 50.7 °F /  10.4 °C 29.80in /  1009hPa South 6.0mph /  9.7km/h 6.0mph /  9.7km/h 32% 0.00in /  0mm 0.0 W/m2
23:40 83.5 °F /  28.6 °C 50.5 °F /  10.3 °C 29.80in /  1009hPa South 4.9mph /  7.9km/h 6.0mph /  9.7km/h 32% 0.00in /  0mm 0.0 W/m2
Canyon Roadhouse, Fishriver Canyon, Namibia
Compliments of Weather Underground - 2.25 mb